createdAt,value
2022-08-30T00:00:24.273Z,69.02
2022-08-30T00:02:50.733Z,69.41
2022-08-30T00:05:17.519Z,69.10
2022-08-30T00:07:43.850Z,69.51
2022-08-30T00:10:10.662Z,69.28
2022-08-30T00:12:37.088Z,69.58
2022-08-30T00:15:05.230Z,69.58
2022-08-30T00:17:31.635Z,69.15
2022-08-30T00:19:58.227Z,69.40
2022-08-30T00:22:25.054Z,69.66
2022-08-30T00:24:51.715Z,69.48
2022-08-30T00:27:18.726Z,69.74
2022-08-30T00:29:45.270Z,69.91
2022-08-30T00:32:11.645Z,70.09
2022-08-30T00:34:38.348Z,70.05
2022-08-30T00:37:04.809Z,70.00
2022-08-30T00:39:31.135Z,70.18
2022-08-30T00:41:57.552Z,70.15
2022-08-30T00:44:24.285Z,70.27
2022-08-30T00:46:50.660Z,70.60
2022-08-30T00:49:17.500Z,70.66
2022-08-30T00:51:44.602Z,70.50
2022-08-30T00:54:11.868Z,70.92
2022-08-30T00:56:38.257Z,70.75
2022-08-30T00:59:06.084Z,70.78
2022-08-30T01:01:34.107Z,70.55
2022-08-30T01:04:00.885Z,70.35
2022-08-30T01:06:32.481Z,70.40
2022-08-30T01:09:01.498Z,70.71
2022-08-30T01:11:28.933Z,71.04
2022-08-30T01:13:55.776Z,71.34
2022-08-30T01:16:23.204Z,71.59
2022-08-30T01:18:52.572Z,71.58
2022-08-30T01:21:27.307Z,71.36
2022-08-30T01:23:57.147Z,71.66
2022-08-30T01:26:25.110Z,71.50
2022-08-30T01:28:55.647Z,71.46
2022-08-30T01:31:22.452Z,71.28
2022-08-30T01:33:49.086Z,71.39
2022-08-30T01:36:15.724Z,71.97
2022-08-30T01:38:47.712Z,71.97
2022-08-30T01:41:20.660Z,72.23
2022-08-30T01:43:48.491Z,72.88
2022-08-30T01:46:17.395Z,72.42
2022-08-30T01:48:53.069Z,72.50
2022-08-30T01:51:23.414Z,72.04
2022-08-30T01:53:49.978Z,71.69
2022-08-30T01:56:16.890Z,71.69
2022-08-30T01:58:44.061Z,71.73
2022-08-30T02:01:13.800Z,71.79
2022-08-30T02:03:42.853Z,71.86
2022-08-30T02:06:13.287Z,71.53
2022-08-30T02:08:40.925Z,71.42
2022-08-30T02:11:08.300Z,71.54
2022-08-30T02:13:35.465Z,71.99
2022-08-30T02:16:01.857Z,72.43
2022-08-30T02:18:28.610Z,72.11
2022-08-30T02:20:55.190Z,72.06
2022-08-30T02:23:21.853Z,71.96
2022-08-30T02:25:48.700Z,71.42
2022-08-30T02:28:15.093Z,71.57
2022-08-30T02:30:42.795Z,71.54
2022-08-30T02:33:09.580Z,72.06
2022-08-30T02:35:36.004Z,71.52
2022-08-30T02:38:02.396Z,71.38
2022-08-30T02:40:28.804Z,71.48
2022-08-30T02:42:55.565Z,71.73
2022-08-30T02:45:24.835Z,72.00
2022-08-30T02:47:51.476Z,71.78
2022-08-30T02:50:18.397Z,71.23
2022-08-30T02:52:48.317Z,71.42
2022-08-30T02:55:15.763Z,71.52
2022-08-30T02:57:42.370Z,71.26
2022-08-30T03:00:11.033Z,71.02
2022-08-30T03:02:37.697Z,71.25
2022-08-30T03:05:04.802Z,71.31
2022-08-30T03:07:31.138Z,71.39
2022-08-30T03:09:57.818Z,71.58
2022-08-30T03:12:24.342Z,71.39
2022-08-30T03:14:51.457Z,71.76
2022-08-30T03:17:18.306Z,72.07
2022-08-30T03:19:44.915Z,71.95
2022-08-30T03:22:12.215Z,72.10
2022-08-30T03:24:38.917Z,72.21
2022-08-30T03:27:05.488Z,72.22
2022-08-30T03:29:31.936Z,71.94
2022-08-30T03:31:58.332Z,71.96
2022-08-30T03:34:26.126Z,72.55
2022-08-30T03:36:54.862Z,72.55
2022-08-30T03:39:22.444Z,72.56
2022-08-30T03:41:49.470Z,72.37
2022-08-30T03:44:16.011Z,71.99
2022-08-30T03:46:42.757Z,72.23
2022-08-30T03:49:09.535Z,72.18
2022-08-30T03:51:35.972Z,72.45
2022-08-30T03:54:02.365Z,72.60
2022-08-30T03:56:28.772Z,73.11
2022-08-30T03:58:55.549Z,72.91
2022-08-30T04:01:22.021Z,73.42
2022-08-30T04:03:48.382Z,73.36
2022-08-30T04:06:14.909Z,72.74
2022-08-30T04:08:42.006Z,72.73
2022-08-30T04:11:08.859Z,73.31
2022-08-30T04:13:35.277Z,73.11
2022-08-30T04:16:01.866Z,73.30
2022-08-30T04:18:28.212Z,72.78
2022-08-30T04:20:55.003Z,72.72
2022-08-30T04:23:21.441Z,72.59
2022-08-30T04:25:48.190Z,72.72
2022-08-30T04:28:14.989Z,72.73
2022-08-30T04:30:44.753Z,73.33
2022-08-30T04:33:13.407Z,73.24
2022-08-30T04:35:42.116Z,73.11
2022-08-30T04:38:08.737Z,72.88
2022-08-30T04:40:35.469Z,72.74
2022-08-30T04:43:02.430Z,72.70
2022-08-30T04:45:28.869Z,72.68
2022-08-30T04:47:56.575Z,72.64
2022-08-30T04:50:23.784Z,72.52
2022-08-30T04:52:50.546Z,72.87
2022-08-30T04:55:20.193Z,72.77
2022-08-30T04:57:46.894Z,72.55
2022-08-30T05:00:14.209Z,72.78
2022-08-30T05:02:41.168Z,73.12
2022-08-30T05:05:09.546Z,73.03
2022-08-30T05:07:36.700Z,72.92
2022-08-30T05:10:11.135Z,72.26
2022-08-30T05:12:38.247Z,72.17
2022-08-30T05:15:05.118Z,72.47
2022-08-30T05:17:31.700Z,72.13
2022-08-30T05:19:58.305Z,71.89
2022-08-30T05:22:24.732Z,71.49
2022-08-30T05:24:51.068Z,71.18
2022-08-30T05:27:17.987Z,71.53
2022-08-30T05:29:46.769Z,71.16
2022-08-30T05:32:13.154Z,71.06
2022-08-30T05:34:39.728Z,70.80
2022-08-30T05:37:06.200Z,70.48
2022-08-30T05:39:51.477Z,70.23
2022-08-30T05:42:18.411Z,70.04
2022-08-30T05:44:44.795Z,70.07
2022-08-30T05:47:11.207Z,70.05
2022-08-30T05:49:37.588Z,70.18
2022-08-30T05:52:04.504Z,70.40
2022-08-30T05:54:31.064Z,70.43
2022-08-30T05:57:00.573Z,70.19
2022-08-30T05:59:26.945Z,70.02
2022-08-30T06:01:57.351Z,69.82
2022-08-30T06:04:24.792Z,69.47
2022-08-30T06:06:51.251Z,69.45
2022-08-30T06:09:18.204Z,69.91
2022-08-30T06:11:46.821Z,70.36
2022-08-30T06:14:14.598Z,70.18
2022-08-30T06:16:41.405Z,69.94
2022-08-30T06:19:09.318Z,69.83
2022-08-30T06:21:36.908Z,69.78
2022-08-30T06:24:05.889Z,69.66
2022-08-30T06:29:07.645Z,68.75
2022-08-30T06:31:34.891Z,68.49
2022-08-30T06:34:01.429Z,68.39
2022-08-30T06:36:28.457Z,68.53
2022-08-30T06:39:15.904Z,68.37
2022-08-30T06:41:43.477Z,67.74
2022-08-30T06:44:16.171Z,67.51
2022-08-30T06:46:42.565Z,67.36
2022-08-30T06:49:09.145Z,67.18
2022-08-30T06:51:39.743Z,67.05
2022-08-30T06:54:09.202Z,66.59
2022-08-30T06:56:37.308Z,66.39
2022-08-30T06:59:04.494Z,66.08
2022-08-30T07:01:31.874Z,66.02
2022-08-30T07:03:58.967Z,65.59
2022-08-30T07:06:26.960Z,65.73
2022-08-30T07:08:56.404Z,65.82
2022-08-30T07:11:35.381Z,65.51
2022-08-30T07:14:06.072Z,65.58
2022-08-30T07:16:32.879Z,65.70
2022-08-30T07:19:00.322Z,65.62
2022-08-30T07:21:34.622Z,65.86
2022-08-30T07:24:01.575Z,65.98
2022-08-30T07:26:34.893Z,66.09
2022-08-30T07:29:01.903Z,66.08
2022-08-30T07:31:31.045Z,66.15
2022-08-30T07:33:59.017Z,65.71
2022-08-30T07:36:25.890Z,66.43
2022-08-30T07:38:55.286Z,66.06
2022-08-30T07:41:29.489Z,66.19
2022-08-30T07:43:56.877Z,66.14
2022-08-30T07:46:24.782Z,65.41
2022-08-30T07:48:52.017Z,64.88
2022-08-30T07:51:21.661Z,64.98
2022-08-30T07:53:48.194Z,64.32
2022-08-30T07:56:14.919Z,64.53
2022-08-30T07:58:41.927Z,63.71
2022-08-30T08:01:10.578Z,62.66
2022-08-30T08:06:25.002Z,61.92
2022-08-30T08:08:58.824Z,60.55
2022-08-30T08:11:31.586Z,59.94
2022-08-30T08:14:00.504Z,59.79
2022-08-30T08:16:29.100Z,59.66
2022-08-30T08:18:56.235Z,59.90
2022-08-30T08:21:26.765Z,59.37
2022-08-30T08:23:53.572Z,58.57
2022-08-30T08:26:20.576Z,58.72
2022-08-30T08:28:47.785Z,58.55
2022-08-30T08:31:16.011Z,57.98
2022-08-30T08:33:42.503Z,57.40
2022-08-30T08:36:09.558Z,57.33
2022-08-30T08:38:36.332Z,57.47
2022-08-30T08:41:25.760Z,56.62
2022-08-30T08:43:52.198Z,55.50
2022-08-30T08:46:39.979Z,55.97
2022-08-30T08:49:11.893Z,54.98
2022-08-30T08:51:40.031Z,54.48
2022-08-30T08:54:14.999Z,54.96
2022-08-30T08:56:41.636Z,53.93
2022-08-30T08:59:10.783Z,52.93
2022-08-30T09:01:40.406Z,52.77
2022-08-30T09:04:16.711Z,52.37
2022-08-30T09:06:57.045Z,52.57
2022-08-30T09:09:27.945Z,51.04
2022-08-30T09:11:54.379Z,51.40
2022-08-30T09:14:30.272Z,50.58
2022-08-30T09:17:02.924Z,50.32
2022-08-30T09:19:54.383Z,50.17
2022-08-30T09:22:46.775Z,49.22
2022-08-30T09:25:14.639Z,49.51
2022-08-30T09:27:47.422Z,48.52
2022-08-30T09:30:21.257Z,46.95
2022-08-30T09:32:54.202Z,44.13
2022-08-30T09:35:41.638Z,42.52
2022-08-30T09:38:18.097Z,42.87
2022-08-30T09:40:51.160Z,42.29
2022-08-30T09:43:20.759Z,39.78
2022-08-30T09:46:00.899Z,40.35
2022-08-30T09:48:41.013Z,39.12
2022-08-30T09:51:10.390Z,37.97
2022-08-30T09:57:12.603Z,38.12
2022-08-30T10:00:00.533Z,38.29
2022-08-30T10:02:48.321Z,38.60
2022-08-30T10:05:36.446Z,37.17
2022-08-30T10:08:05.824Z,38.75
2022-08-30T10:10:46.761Z,39.51
2022-08-30T10:13:49.302Z,39.72
2022-08-30T10:16:40.844Z,38.42
2022-08-30T10:19:38.293Z,39.28
2022-08-30T10:22:18.412Z,38.80
2022-08-30T10:24:50.352Z,37.93
2022-08-30T10:27:28.882Z,38.28
2022-08-30T10:30:10.042Z,38.80
2022-08-30T10:32:46.642Z,39.81
2022-08-30T10:35:22.673Z,39.74
2022-08-30T10:38:27.037Z,37.97
2022-08-30T10:41:07.376Z,37.01
2022-08-30T10:43:45.657Z,36.74
2022-08-30T10:46:25.316Z,37.48
2022-08-30T10:48:53.962Z,38.46
2022-08-30T10:51:29.328Z,37.67
2022-08-30T10:54:08.589Z,37.37
2022-08-30T10:56:40.530Z,37.50
2022-08-30T10:59:07.613Z,37.73
2022-08-30T11:02:18.046Z,38.52
2022-08-30T11:04:56.578Z,38.10
2022-08-30T11:07:41.873Z,38.29
2022-08-30T11:10:25.840Z,39.18
2022-08-30T11:13:04.694Z,39.15
2022-08-30T11:15:57.525Z,37.79
2022-08-30T11:18:26.107Z,38.43
2022-08-30T11:21:15.025Z,38.12
2022-08-30T11:23:41.954Z,38.28
2022-08-30T11:26:32.397Z,38.24
2022-08-30T11:28:59.002Z,38.23
2022-08-30T11:31:33.624Z,38.54
2022-08-30T11:34:01.118Z,38.30
2022-08-30T11:36:37.350Z,37.99
2022-08-30T11:39:42.192Z,37.68
2022-08-30T11:42:24.970Z,36.82
2022-08-30T11:45:25.485Z,36.44
2022-08-30T11:48:08.427Z,36.54
2022-08-30T11:50:54.489Z,37.69
2022-08-30T11:53:43.449Z,37.07
2022-08-30T11:56:21.521Z,38.10
2022-08-30T11:59:01.779Z,37.64
2022-08-30T12:01:50.537Z,37.68
2022-08-30T12:04:17.519Z,38.32
2022-08-30T12:06:46.993Z,37.32
2022-08-30T12:09:25.287Z,37.58
2022-08-30T12:11:57.658Z,37.68
2022-08-30T12:14:33.139Z,37.12
2022-08-30T12:17:01.494Z,37.29
2022-08-30T12:19:30.146Z,36.97
2022-08-30T12:22:01.042Z,37.30
2022-08-30T12:24:41.056Z,36.32
2022-08-30T12:27:32.590Z,36.53
2022-08-30T12:30:08.797Z,36.86
2022-08-30T12:32:45.868Z,36.74
2022-08-30T12:35:22.276Z,36.92
2022-08-30T12:37:59.997Z,35.63
2022-08-30T12:40:27.272Z,36.42
2022-08-30T12:43:02.781Z,36.15
2022-08-30T12:45:34.011Z,35.90
2022-08-30T12:48:11.733Z,35.68
2022-08-30T12:50:43.954Z,35.73
2022-08-30T12:53:14.277Z,35.39
2022-08-30T12:56:06.178Z,34.50
2022-08-30T12:58:42.469Z,33.71
2022-08-30T13:01:24.546Z,34.04
2022-08-30T13:04:20.557Z,34.37
2022-08-30T13:07:01.767Z,34.60
2022-08-30T13:09:32.986Z,34.54
2022-08-30T13:12:01.817Z,35.01
2022-08-30T13:14:38.117Z,34.52
2022-08-30T13:17:10.770Z,34.66
2022-08-30T13:19:43.421Z,34.63
2022-08-30T13:22:38.070Z,34.40
2022-08-30T13:25:06.068Z,34.96
2022-08-30T13:27:36.824Z,35.19
2022-08-30T13:30:15.507Z,34.96
2022-08-30T13:32:42.775Z,34.71
2022-08-30T13:35:10.222Z,34.59
2022-08-30T13:37:47.240Z,34.60
2022-08-30T13:40:17.120Z,35.11
2022-08-30T13:42:45.131Z,35.37
2022-08-30T13:48:01.555Z,34.89
2022-08-30T13:50:28.191Z,33.76
2022-08-30T13:52:56.803Z,34.33
2022-08-30T13:55:23.265Z,34.40
2022-08-30T13:57:57.323Z,34.64
2022-08-30T14:00:25.503Z,35.35
2022-08-30T14:02:54.654Z,34.34
2022-08-30T14:11:00.103Z,33.64
2022-08-30T14:13:27.112Z,34.56
2022-08-30T14:18:44.321Z,34.37
2022-08-30T14:21:10.794Z,34.51
2022-08-30T14:23:37.111Z,34.61
2022-08-30T14:26:09.951Z,34.97
2022-08-30T14:28:36.261Z,35.71
2022-08-30T14:31:03.146Z,35.17
2022-08-30T14:33:29.520Z,35.02
2022-08-30T14:35:56.246Z,34.61
2022-08-30T14:38:22.700Z,34.11
2022-08-30T14:40:49.289Z,34.14
2022-08-30T14:43:15.927Z,34.20
2022-08-30T14:45:42.778Z,33.89
2022-08-30T14:48:11.571Z,34.64
2022-08-30T14:50:39.256Z,34.94
2022-08-30T14:53:06.769Z,35.28
2022-08-30T14:55:34.879Z,35.67
2022-08-30T14:58:01.971Z,35.50
2022-08-30T15:00:30.438Z,35.34
2022-08-30T15:02:57.084Z,34.21
2022-08-30T15:05:23.506Z,33.84
2022-08-30T15:07:50.880Z,33.85
2022-08-30T15:10:18.838Z,34.28
2022-08-30T15:12:49.868Z,35.60
2022-08-30T15:15:19.513Z,35.98
2022-08-30T15:17:48.135Z,36.36
2022-08-30T15:20:16.300Z,36.09
2022-08-30T15:22:42.705Z,36.25
2022-08-30T15:25:13.230Z,36.11
2022-08-30T15:27:39.657Z,36.21
2022-08-30T15:30:08.360Z,36.23
2022-08-30T15:32:37.503Z,35.86
2022-08-30T15:35:04.890Z,36.23
2022-08-30T15:37:34.242Z,36.72
2022-08-30T15:40:01.220Z,36.82
2022-08-30T15:42:31.095Z,37.51
2022-08-30T15:44:57.610Z,37.50
2022-08-30T15:47:24.049Z,37.08
2022-08-30T15:50:02.590Z,37.53
2022-08-30T15:52:30.345Z,37.42
2022-08-30T15:54:56.991Z,37.51
2022-08-30T15:57:23.468Z,36.97
2022-08-30T15:59:50.405Z,36.84
2022-08-30T16:02:17.262Z,37.05
2022-08-30T16:04:43.894Z,37.29
2022-08-30T16:07:10.308Z,37.54
2022-08-30T16:09:38.368Z,37.72
2022-08-30T16:12:06.406Z,37.70
2022-08-30T16:14:33.503Z,37.78
2022-08-30T16:16:59.836Z,37.66
2022-08-30T16:19:26.663Z,38.03
2022-08-30T16:21:53.009Z,38.25
2022-08-30T16:24:22.838Z,37.59
2022-08-30T16:26:49.725Z,38.11
2022-08-30T16:29:16.190Z,37.57
2022-08-30T16:31:43.833Z,38.04
2022-08-30T16:34:13.068Z,38.01
2022-08-30T16:36:39.616Z,38.06
2022-08-30T16:39:08.471Z,38.52
2022-08-30T16:41:36.380Z,38.87
2022-08-30T16:44:03.790Z,39.20
2022-08-30T16:46:33.347Z,39.27
2022-08-30T16:49:00.679Z,39.32
2022-08-30T16:51:29.475Z,39.09
2022-08-30T16:53:57.886Z,39.46
2022-08-30T16:56:26.747Z,39.40
2022-08-30T16:59:00.838Z,39.02
2022-08-30T17:01:29.471Z,39.36
2022-08-30T17:03:55.861Z,39.73
2022-08-30T17:06:22.649Z,39.91
2022-08-30T17:08:49.322Z,39.53
2022-08-30T17:11:22.289Z,40.25
2022-08-30T17:13:49.221Z,40.34
2022-08-30T17:16:17.389Z,39.87
2022-08-30T17:18:53.995Z,40.44
2022-08-30T17:21:20.561Z,41.24
2022-08-30T17:23:48.389Z,41.23
2022-08-30T17:26:16.151Z,41.57
2022-08-30T17:28:42.902Z,41.85
2022-08-30T17:31:11.098Z,41.91
2022-08-30T17:33:37.824Z,42.29
2022-08-30T17:36:09.096Z,42.75
2022-08-30T17:38:35.434Z,42.85
2022-08-30T17:41:09.314Z,43.19
2022-08-30T17:43:37.820Z,43.71
2022-08-30T17:46:07.119Z,43.87
2022-08-30T17:48:34.334Z,43.97
2022-08-30T17:51:02.133Z,44.14
2022-08-30T17:53:29.613Z,44.13
2022-08-30T17:55:56.113Z,44.58
2022-08-30T17:58:25.144Z,44.57
2022-08-30T18:00:51.504Z,44.57
2022-08-30T18:03:18.191Z,45.09
2022-08-30T18:05:44.580Z,44.96
2022-08-30T18:08:14.099Z,45.34
2022-08-30T18:10:40.474Z,45.51
2022-08-30T18:13:06.859Z,45.20
2022-08-30T18:15:33.973Z,45.41
2022-08-30T18:18:00.578Z,45.71
2022-08-30T18:20:26.914Z,45.80
2022-08-30T18:22:57.662Z,46.13
2022-08-30T18:25:24.091Z,46.52
2022-08-30T18:27:58.198Z,46.37
2022-08-30T18:30:29.886Z,47.01
2022-08-30T18:33:00.188Z,46.90
2022-08-30T18:35:27.268Z,47.02
2022-08-30T18:37:53.582Z,47.15
2022-08-30T18:40:20.284Z,47.38
2022-08-30T18:42:47.641Z,47.69
2022-08-30T18:45:15.077Z,47.75
2022-08-30T18:47:42.567Z,47.67
2022-08-30T18:50:09.305Z,48.24
2022-08-30T18:52:35.727Z,48.51
2022-08-30T18:55:02.487Z,48.50
2022-08-30T18:57:28.874Z,48.36
2022-08-30T18:59:57.451Z,48.83
2022-08-30T19:02:27.504Z,48.99
2022-08-30T19:04:54.416Z,49.25
2022-08-30T19:07:20.870Z,49.17
2022-08-30T19:09:53.539Z,49.28
2022-08-30T19:12:20.444Z,49.89
2022-08-30T19:14:47.376Z,50.00
2022-08-30T19:17:14.089Z,50.06
2022-08-30T19:19:48.295Z,49.84
2022-08-30T19:22:15.772Z,49.72
2022-08-30T19:24:42.098Z,49.62
2022-08-30T19:27:09.975Z,50.30
2022-08-30T19:29:36.315Z,50.26
2022-08-30T19:32:03.547Z,50.46
2022-08-30T19:34:30.256Z,50.37
2022-08-30T19:36:56.818Z,50.78
2022-08-30T19:39:23.938Z,50.85
2022-08-30T19:41:50.626Z,51.02
2022-08-30T19:44:16.958Z,51.04
2022-08-30T19:46:44.610Z,51.17
2022-08-30T19:49:11.456Z,51.29
2022-08-30T19:51:39.964Z,51.24
2022-08-30T19:54:13.565Z,51.25
2022-08-30T19:56:40.390Z,51.25
2022-08-30T19:59:06.709Z,51.70
2022-08-30T20:01:33.943Z,51.69
2022-08-30T20:04:01.178Z,51.57
2022-08-30T20:06:28.155Z,51.91
2022-08-30T20:08:56.779Z,52.24
2022-08-30T20:11:24.606Z,52.92
2022-08-30T20:13:51.190Z,53.22
2022-08-30T20:16:17.678Z,52.93
2022-08-30T20:18:45.330Z,53.62
2022-08-30T20:21:13.563Z,53.62
2022-08-30T20:23:40.846Z,53.32
2022-08-30T20:26:08.213Z,53.12
2022-08-30T20:28:34.983Z,53.18
2022-08-30T20:31:03.993Z,53.47
2022-08-30T20:33:30.406Z,53.95
2022-08-30T20:36:00.804Z,54.36
2022-08-30T20:38:27.974Z,54.25
2022-08-30T20:40:57.347Z,54.31
2022-08-30T20:43:26.705Z,54.38
2022-08-30T20:45:54.277Z,54.42
2022-08-30T20:48:21.961Z,54.79
2022-08-30T20:50:48.634Z,55.03
2022-08-30T20:53:16.215Z,55.21
2022-08-30T20:55:45.373Z,55.41
2022-08-30T20:58:12.266Z,55.44
2022-08-30T21:00:38.953Z,55.61
2022-08-30T21:03:08.288Z,55.47
2022-08-30T21:05:53.048Z,55.42
2022-08-30T21:08:19.441Z,55.69
2022-08-30T21:10:46.045Z,55.51
2022-08-30T21:13:12.436Z,55.97
2022-08-30T21:15:39.007Z,56.19
2022-08-30T21:18:06.053Z,56.63
2022-08-30T21:20:32.522Z,56.38
2022-08-30T21:22:59.132Z,56.99
2022-08-30T21:25:25.784Z,56.53
2022-08-30T21:27:52.184Z,56.74
2022-08-30T21:30:18.610Z,56.76
2022-08-30T21:32:45.032Z,56.78
2022-08-30T21:35:11.420Z,57.04
2022-08-30T21:37:37.957Z,57.01
2022-08-30T21:40:04.847Z,56.97
2022-08-30T21:42:31.264Z,57.58
2022-08-30T21:44:57.662Z,57.44
2022-08-30T21:47:24.307Z,57.43
2022-08-30T21:49:50.640Z,57.97
2022-08-30T21:52:17.060Z,58.65
2022-08-30T21:54:43.380Z,58.46
2022-08-30T21:57:09.702Z,58.00
2022-08-30T21:59:36.416Z,58.17
2022-08-30T22:02:02.840Z,59.49
2022-08-30T22:04:29.508Z,58.87
2022-08-30T22:06:55.921Z,59.86
2022-08-30T22:09:24.710Z,59.78
2022-08-30T22:11:51.199Z,59.95
2022-08-30T22:14:19.005Z,59.97
2022-08-30T22:16:45.694Z,60.80
2022-08-30T22:19:12.419Z,60.85
2022-08-30T22:21:39.621Z,61.18
2022-08-30T22:24:06.071Z,61.85
2022-08-30T22:26:33.688Z,61.72
2022-08-30T22:29:00.793Z,61.59
2022-08-30T22:31:27.690Z,62.17
2022-08-30T22:33:54.554Z,61.25
2022-08-30T22:36:32.639Z,61.01
2022-08-30T22:39:00.737Z,62.01
2022-08-30T22:41:31.467Z,61.51
2022-08-30T22:43:58.535Z,60.98
2022-08-30T22:46:33.629Z,60.84
2022-08-30T22:49:02.031Z,60.54
2022-08-30T22:51:28.357Z,60.21
2022-08-30T22:53:54.748Z,60.28
2022-08-30T22:56:24.038Z,60.27
2022-08-30T22:58:51.455Z,60.18
2022-08-30T23:01:29.875Z,60.01
2022-08-30T23:03:57.532Z,60.08
2022-08-30T23:06:24.825Z,60.51
2022-08-30T23:08:51.436Z,60.54
2022-08-30T23:11:18.260Z,60.60
2022-08-30T23:13:45.680Z,61.59
2022-08-30T23:16:14.011Z,61.25
2022-08-30T23:18:44.185Z,61.09
2022-08-30T23:21:20.598Z,61.12
2022-08-30T23:23:47.688Z,61.31
2022-08-30T23:26:14.123Z,61.53
2022-08-30T23:28:40.698Z,61.31
2022-08-30T23:31:14.247Z,61.38
2022-08-30T23:33:40.677Z,61.63
2022-08-30T23:36:09.586Z,61.57
2022-08-30T23:38:36.425Z,61.45
2022-08-30T23:41:02.883Z,62.29
2022-08-30T23:43:29.233Z,62.28
2022-08-30T23:45:56.571Z,62.61
2022-08-30T23:48:23.063Z,62.38
2022-08-30T23:50:49.379Z,62.20
2022-08-30T23:53:15.974Z,62.52
2022-08-30T23:55:42.349Z,62.94
2022-08-30T23:58:08.731Z,63.10
